Time;durP1;ratioP1;P1;durP2;ratioP2;P2;SDS_P1;SDS_P2;PMS_P1;PMS_P2;Temp;Humidity;BMP_temperature;BMP_pressure;BME280_temperature;BME280_humidity;BME280_pressure;Samples;Min_cycle;Max_cycle;Signal;HPM_P1;HPM_P2
2021/12/15 00:00:18;;;;;;;42.23;27.40;;;5.60;99.90;;;6.29;100.00;99245.00;5227616;28;20221;-60
2021/12/15 00:02:52;;;;;;;53.67;32.03;;;5.60;99.90;;;6.29;100.00;99243.34;5217629;28;20697;-60
2021/12/15 00:05:28;;;;;;;45.03;27.93;;;5.60;99.90;;;6.31;100.00;99246.94;5221806;28;20197;-60
2021/12/15 00:08:07;;;;;;;43.70;28.67;;;5.70;99.90;;;6.35;100.00;99243.03;5228862;28;20273;-60
2021/12/15 00:10:42;;;;;;;43.73;27.93;;;5.60;99.90;;;6.35;100.00;99247.22;5226745;28;20224;-60
2021/12/15 00:13:18;;;;;;;49.77;28.27;;;5.70;99.90;;;6.38;100.00;99238.28;5218838;28;20197;-60
2021/12/15 00:15:51;;;;;;;48.43;29.23;;;5.60;99.90;;;6.37;100.00;99245.75;5210435;28;20201;-60
2021/12/15 00:18:24;;;;;;;41.73;26.73;;;5.70;99.90;;;6.32;100.00;99248.75;5226584;28;20220;-59
2021/12/15 00:20:59;;;;;;;42.13;26.77;;;5.60;99.90;;;6.34;100.00;99248.88;5222994;28;20200;-60
2021/12/15 00:23:32;;;;;;;43.30;27.23;;;5.60;99.90;;;6.37;100.00;99249.16;5225832;28;20200;-60
2021/12/15 00:26:05;;;;;;;41.37;27.27;;;5.70;99.90;;;6.41;100.00;99251.28;5223290;28;20205;-60
2021/12/15 00:28:38;;;;;;;42.00;26.80;;;5.70;99.90;;;6.40;100.00;99251.09;5209164;28;20586;-60
2021/12/15 00:31:12;;;;;;;43.30;27.27;;;5.70;99.90;;;6.40;100.00;99251.09;5213405;28;20224;-59
2021/12/15 00:33:46;;;;;;;43.87;26.93;;;5.70;99.90;;;6.41;100.00;99251.28;5227264;28;20229;-60
2021/12/15 00:36:20;;;;;;;40.90;27.33;;;5.70;99.90;;;6.45;100.00;99249.91;5228124;28;20190;-60
2021/12/15 00:38:54;;;;;;;41.63;26.10;;;5.60;99.90;;;6.48;100.00;99250.19;5225746;28;20227;-59
2021/12/15 00:41:27;;;;;;;42.63;27.60;;;5.60;99.90;;;6.46;100.00;99246.59;5215799;28;20453;-59
2021/12/15 00:44:00;;;;;;;38.63;25.53;;;5.60;99.90;;;6.46;100.00;99247.50;5219924;28;20206;-59
2021/12/15 00:46:33;;;;;;;40.67;25.37;;;5.60;99.90;;;6.46;100.00;99241.53;5221041;28;20575;-59
2021/12/15 00:49:08;;;;;;;41.27;26.50;;;5.70;99.90;;;6.47;100.00;99248.41;5226352;28;20217;-60
2021/12/15 00:51:43;;;;;;;42.97;26.43;;;5.70;99.90;;;6.49;100.00;99257.94;5215171;28;20603;-57
2021/12/15 00:54:16;;;;;;;41.67;25.97;;;5.70;99.90;;;6.45;100.00;99255.00;5222764;28;20199;-60
2021/12/15 00:56:50;;;;;;;42.70;25.97;;;5.70;99.90;;;6.41;100.00;99263.97;5225563;28;20207;-60
2021/12/15 00:59:24;;;;;;;43.30;25.80;;;5.70;99.90;;;6.40;100.00;99267.22;5225636;28;20701;-60
2021/12/15 01:01:58;;;;;;;42.63;27.10;;;5.70;99.90;;;6.39;100.00;99267.09;5221570;28;20204;-60
2021/12/15 01:04:33;;;;;;;42.97;26.57;;;5.60;99.90;;;6.40;100.00;99264.69;5225172;28;20209;-60
2021/12/15 01:07:11;;;;;;;41.87;26.67;;;5.70;99.90;;;6.39;100.00;99262.91;5220014;28;20206;-60
2021/12/15 01:09:54;;;;;;;42.07;25.67;;;5.70;99.90;;;6.39;100.00;99262.03;5222646;28;20225;-60
2021/12/15 01:12:49;;;;;;;42.27;26.07;;;5.70;99.90;;;6.40;100.00;99266.34;5227056;28;20291;-60
2021/12/15 01:21:10;;;;;;;39.03;25.70;;;5.70;99.90;;;6.40;100.00;99264.69;5222950;28;20201;-59
2021/12/15 01:23:44;;;;;;;43.83;26.37;;;5.70;99.90;;;6.45;100.00;99265.16;5216284;28;20194;-59
2021/12/15 01:26:17;;;;;;;42.30;26.67;;;5.60;99.90;;;6.49;100.00;99267.22;5219835;28;20204;-60
2021/12/15 01:28:50;;;;;;;42.63;27.37;;;5.60;99.90;;;6.43;100.00;99264.97;5219325;28;20217;-59
2021/12/15 01:31:24;;;;;;;42.77;26.60;;;5.70;99.90;;;6.46;100.00;99270.34;5223665;28;20189;-59
2021/12/15 01:33:57;;;;;;;43.37;25.63;;;5.60;99.90;;;6.48;100.00;99267.97;5218341;28;20662;-60
2021/12/15 01:36:31;;;;;;;43.57;26.67;;;5.70;99.90;;;6.51;100.00;99276.78;5211496;28;20198;-59
2021/12/15 01:39:06;;;;;;;44.47;25.87;;;5.70;99.90;;;6.48;100.00;99267.97;5218472;28;20231;-60
2021/12/15 01:41:39;;;;;;;39.93;25.23;;;5.70;99.90;;;6.49;100.00;99274.84;5225192;28;20201;-60
2021/12/15 01:47:04;;;;;;;40.03;25.23;;;5.70;99.90;;;6.50;100.00;99274.09;5217482;28;20615;-58
2021/12/15 01:49:42;;;;;;;42.70;25.77;;;5.70;99.90;;;6.52;100.00;99278.59;5214719;28;20565;-60
2021/12/15 01:52:20;;;;;;;37.07;24.10;;;5.70;99.90;;;6.52;100.00;99280.22;5225549;28;20205;-60
2021/12/15 01:54:57;;;;;;;43.07;25.60;;;5.70;99.90;;;6.49;100.00;99267.22;5222339;28;20204;-60
2021/12/15 01:57:33;;;;;;;42.50;24.60;;;5.70;99.90;;;6.49;100.00;99274.84;5224669;28;20201;-60
2021/12/15 02:00:12;;;;;;;39.37;24.97;;;5.60;99.90;;;6.50;100.00;99272.47;5215809;28;20700;-60
2021/12/15 02:02:47;;;;;;;40.30;25.37;;;5.70;99.90;;;6.48;100.00;99270.53;5226272;28;20240;-60
2021/12/15 02:05:21;;;;;;;37.60;24.07;;;5.70;99.90;;;6.48;100.00;99270.53;5216293;28;20653;-60
2021/12/15 02:07:55;;;;;;;36.73;24.57;;;5.70;99.90;;;6.52;100.00;99272.59;5210937;28;20203;-60
2021/12/15 02:10:34;;;;;;;37.63;23.30;;;5.70;99.90;;;6.57;100.00;99276.47;5219573;28;20213;-60
2021/12/15 02:13:13;;;;;;;33.93;22.93;;;5.70;99.90;;;6.53;100.00;99272.75;5225444;28;20207;-60
2021/12/15 02:15:50;;;;;;;34.80;22.73;;;5.70;99.90;;;6.47;100.00;99268.75;5222919;28;20706;-60
2021/12/15 02:18:27;;;;;;;33.30;21.53;;;5.70;99.90;;;6.36;100.00;99270.25;5205261;28;20603;-58
2021/12/15 02:21:07;;;;;;;33.40;22.20;;;5.60;99.90;;;6.37;100.00;99266.06;5223406;28;20207;-58
2021/12/15 02:23:47;;;;;;;34.80;22.90;;;5.60;99.90;;;6.42;100.00;99270.81;5218718;28;20229;-60
2021/12/15 02:26:24;;;;;;;32.97;21.37;;;5.70;99.90;;;6.45;100.00;99265.16;5224524;28;20580;-60
2021/12/15 02:29:01;;;;;;;36.20;23.23;;;5.70;99.90;;;6.45;100.00;99271.13;5219747;28;20216;-60
2021/12/15 02:31:41;;;;;;;35.20;22.97;;;5.70;99.90;;;6.48;100.00;99265.44;5224584;28;20197;-60
2021/12/15 02:34:32;;;;;;;35.33;23.27;;;5.60;99.90;;;6.51;100.00;99268.28;5217362;28;20197;-60
2021/12/15 02:37:17;;;;;;;34.83;22.70;;;5.60;99.90;;;6.51;100.00;99260.66;5221034;28;20209;-60
2021/12/15 02:39:55;;;;;;;31.13;21.40;;;5.60;99.90;;;6.53;100.00;99264.25;5212352;28;20229;-60
2021/12/15 02:42:32;;;;;;;32.80;22.20;;;5.70;99.90;;;6.50;100.00;99263.94;5219473;28;20227;-60
2021/12/15 02:45:10;;;;;;;28.63;20.27;;;5.70;99.90;;;6.48;100.00;99267.97;5211811;28;20190;-59
2021/12/15 02:47:43;;;;;;;31.73;22.00;;;5.60;99.90;;;6.47;100.00;99259.47;5217800;28;20203;-60
2021/12/15 02:50:22;;;;;;;32.63;22.20;;;5.60;99.90;;;6.46;100.00;99256.78;5206824;28;20220;-60
2021/12/15 02:52:59;;;;;;;34.27;22.50;;;5.70;99.90;;;6.48;100.00;99261.25;5224574;28;20563;-60
2021/12/15 02:55:32;;;;;;;32.43;21.87;;;5.70;99.90;;;6.47;100.00;99262.00;5220991;28;20560;-60
2021/12/15 02:58:06;;;;;;;30.40;20.70;;;5.70;99.90;;;6.46;100.00;99261.84;5216453;28;20211;-59
2021/12/15 03:00:49;;;;;;;29.43;21.20;;;5.60;99.90;;;6.46;100.00;99257.66;5210262;28;20225;-60
2021/12/15 03:03:51;;;;;;;32.60;21.43;;;5.70;99.90;;;6.48;100.00;99255.28;5223652;28;20565;-60
2021/12/15 03:06:31;;;;;;;36.10;22.30;;;5.70;99.90;;;6.47;100.00;99263.66;5214799;28;20202;-58
2021/12/15 03:09:31;;;;;;;30.50;21.37;;;5.70;99.90;;;6.48;100.00;99265.44;5219350;28;20308;-60
2021/12/15 03:17:54;;;;;;;36.93;22.90;;;5.70;99.90;;;6.47;100.00;99273.81;5213888;28;20657;-60
2021/12/15 03:20:31;;;;;;;35.13;22.03;;;5.70;99.90;;;6.42;100.00;99272.47;5229399;28;20224;-59
2021/12/15 03:23:07;;;;;;;40.67;22.03;;;5.70;99.90;;;6.42;100.00;99275.00;5228119;28;20197;-59
2021/12/15 03:25:41;;;;;;;37.13;20.77;;;5.70;99.90;;;6.42;100.00;99275.00;5215901;28;20219;-60
2021/12/15 03:34:11;;;;;;;38.73;21.77;;;5.70;99.90;;;6.43;100.00;99274.25;5223199;28;20570;-58
2021/12/15 03:37:06;;;;;;;35.47;20.63;;;5.70;99.90;;;6.42;100.00;99275.00;5225062;28;20212;-60
2021/12/15 03:39:45;;;;;;;37.40;19.20;;;5.70;99.90;;;6.43;100.00;99272.59;5226617;28;20708;-60
2021/12/15 03:42:26;;;;;;;35.77;21.03;;;5.70;99.90;;;6.44;100.00;99271.88;5223268;28;20201;-60
2021/12/15 03:45:01;;;;;;;35.60;21.30;;;5.70;99.90;;;6.47;100.00;99283.97;5226716;28;20202;-60
2021/12/15 03:47:39;;;;;;;31.73;20.23;;;5.70;99.90;;;6.46;100.00;99283.06;5216054;28;20211;-60
2021/12/15 03:50:17;;;;;;;29.47;19.13;;;5.60;99.90;;;6.51;100.00;99286.03;5222378;28;20611;-60
2021/12/15 03:52:51;;;;;;;30.67;19.60;;;5.70;99.90;;;6.54;100.00;99286.34;5227382;28;20209;-60
2021/12/15 03:55:31;;;;;;;29.27;18.43;;;5.60;99.90;;;6.49;100.00;99282.47;5225109;28;20197;-60
2021/12/15 03:58:11;;;;;;;30.03;20.30;;;5.60;99.90;;;6.46;100.00;99277.09;5208122;28;20202;-60
2021/12/15 04:00:49;;;;;;;31.53;20.73;;;5.70;99.90;;;6.46;100.00;99288.13;5225258;28;20235;-60
2021/12/15 04:03:28;;;;;;;32.27;21.67;;;5.70;99.90;;;6.52;100.00;99293.84;5220268;28;20211;-60
2021/12/15 04:06:05;;;;;;;34.33;21.33;;;5.70;99.90;;;6.51;100.00;99296.22;5227169;28;20192;-58
2021/12/15 04:08:40;;;;;;;35.60;21.37;;;5.70;99.90;;;6.40;100.00;99292.63;5225555;28;20960;-60
2021/12/15 04:11:17;;;;;;;32.37;20.43;;;5.60;99.90;;;6.40;100.00;99291.75;5227103;28;20283;-60
2021/12/15 04:13:52;;;;;;;35.80;21.57;;;5.60;99.90;;;6.39;100.00;99295.03;5226182;28;20207;-60
2021/12/15 04:16:42;;;;;;;29.83;18.70;;;5.60;99.90;;;6.39;100.00;99295.03;5226580;28;20200;-59
2021/12/15 04:19:20;;;;;;;32.83;20.33;;;5.60;99.90;;;6.41;100.00;99293.50;5217664;28;20596;-59
2021/12/15 04:21:53;;;;;;;34.27;21.37;;;5.60;99.90;;;6.42;100.00;99291.13;5223162;28;20185;-60
2021/12/15 04:24:29;;;;;;;36.87;21.97;;;5.70;99.90;;;6.49;100.00;99288.44;5223157;28;20205;-60
2021/12/15 04:27:03;;;;;;;35.87;22.80;;;5.60;99.90;;;6.50;100.00;99295.31;5221505;28;20536;-60
2021/12/15 04:29:39;;;;;;;37.70;21.73;;;5.70;99.90;;;6.56;100.00;99295.00;5215839;28;20923;-59
2021/12/15 04:32:18;;;;;;;39.83;22.57;;;5.60;99.90;;;6.53;100.00;99294.72;5221722;28;20197;-60
2021/12/15 04:34:51;;;;;;;32.83;20.87;;;5.70;99.90;;;6.55;100.00;99300.81;5226193;28;20207;-60
2021/12/15 04:37:25;;;;;;;39.60;21.90;;;5.60;99.90;;;6.53;100.00;99298.16;5227690;28;20201;-59
2021/12/15 04:39:58;;;;;;;36.63;21.17;;;5.60;99.90;;;6.52;100.00;99301.44;5219046;28;20225;-60
2021/12/15 04:42:32;;;;;;;37.17;21.40;;;5.60;99.90;;;6.52;100.00;99306.53;5216661;28;20193;-60
2021/12/15 04:45:08;;;;;;;36.87;20.83;;;5.60;99.90;;;6.53;100.00;99304.88;5219545;28;20202;-58
2021/12/15 04:47:42;;;;;;;36.70;22.10;;;5.70;99.90;;;6.47;100.00;99304.28;5222890;28;20193;-60
2021/12/15 04:50:15;;;;;;;41.13;23.50;;;5.60;99.90;;;6.45;100.00;99301.59;5227380;28;20592;-60
2021/12/15 04:52:50;;;;;;;42.17;22.20;;;5.60;99.90;;;6.50;100.00;99302.03;5216029;28;20213;-60
2021/12/15 04:55:25;;;;;;;42.53;23.33;;;5.60;99.90;;;6.51;100.00;99303.81;5224236;28;20678;-60
2021/12/15 04:57:59;;;;;;;39.47;22.53;;;5.60;99.90;;;6.51;100.00;99312.34;5212542;28;20193;-59
2021/12/15 05:00:44;;;;;;;38.27;21.13;;;5.60;99.90;;;6.47;100.00;99309.38;5225787;28;20221;-60
2021/12/15 05:03:18;;;;;;;41.60;22.23;;;5.70;99.90;;;6.47;100.00;99310.25;5223699;28;20201;-60
2021/12/15 05:05:52;;;;;;;43.30;22.50;;;5.60;99.90;;;6.48;100.00;99311.16;5222725;28;20197;-60
2021/12/15 05:08:25;;;;;;;46.27;23.63;;;5.60;99.90;;;6.49;100.00;99310.38;5222998;28;20233;-60
2021/12/15 05:10:59;;;;;;;50.03;25.50;;;5.60;99.90;;;6.49;100.00;99307.84;5218386;28;20547;-60
2021/12/15 05:13:34;;;;;;;43.90;23.17;;;5.60;99.90;;;6.49;100.00;99316.38;5215798;28;20200;-60
2021/12/15 05:16:08;;;;;;;50.67;25.43;;;5.60;99.90;;;6.41;100.00;99312.22;5224396;28;20193;-60
2021/12/15 05:18:42;;;;;;;49.47;25.30;;;5.60;99.90;;;6.36;100.00;99315.06;5218334;28;20274;-60
2021/12/15 05:21:15;;;;;;;49.40;24.70;;;5.60;99.90;;;6.36;100.00;99304.91;5220652;28;20229;-59
2021/12/15 05:23:54;;;;;;;46.40;23.83;;;5.60;99.90;;;6.38;100.00;99313.53;5218267;28;20566;-60
2021/12/15 05:26:27;;;;;;;45.13;23.23;;;5.60;99.90;;;6.37;100.00;99314.31;5220207;28;20205;-60
2021/12/15 05:29:00;;;;;;;37.57;21.50;;;5.60;99.90;;;6.39;100.00;99316.25;5208002;28;20221;-57
2021/12/15 05:31:35;;;;;;;36.37;23.00;;;5.60;99.90;;;6.35;100.00;99318.31;5214064;28;20316;-59
2021/12/15 05:34:08;;;;;;;39.63;23.10;;;5.60;99.90;;;6.39;100.00;99322.97;5215978;28;20208;-59
2021/12/15 05:36:42;;;;;;;40.30;23.37;;;5.60;99.90;;;6.38;100.00;99328.78;5220108;28;20205;-59
2021/12/15 05:39:15;;;;;;;40.53;23.70;;;5.60;99.90;;;6.39;100.00;99328.06;5215668;28;20220;-58
2021/12/15 05:41:50;;;;;;;34.87;22.20;;;5.60;99.90;;;6.35;100.00;99334.44;5219913;28;20227;-58
2021/12/15 05:44:25;;;;;;;37.00;22.23;;;5.60;99.90;;;6.36;100.00;99331.19;5219579;28;20215;-60
2021/12/15 05:47:02;;;;;;;36.50;22.07;;;5.60;99.90;;;6.40;100.00;99332.38;5214101;28;20211;-59
2021/12/15 05:49:36;;;;;;;38.47;22.20;;;5.60;99.90;;;6.39;100.00;99345.81;5225768;28;20221;-60
2021/12/15 05:52:10;;;;;;;37.27;23.03;;;5.70;99.90;;;6.41;100.00;99339.22;5216960;28;20209;-58
2021/12/15 05:54:43;;;;;;;35.83;21.10;;;5.60;99.90;;;6.32;100.00;99335.06;5217552;28;20703;-59
2021/12/15 05:57:16;;;;;;;35.93;22.10;;;5.60;99.90;;;6.35;100.00;99333.56;5225074;28;20197;-59
2021/12/15 05:59:50;;;;;;;34.47;21.30;;;5.60;99.90;;;6.40;100.00;99342.53;5221457;28;20232;-60
2021/12/15 06:02:25;;;;;;;29.60;20.03;;;5.70;99.90;;;6.39;100.00;99345.81;5223619;28;20202;-59
2021/12/15 06:04:58;;;;;;;31.90;20.00;;;5.60;99.90;;;6.37;100.00;99335.50;5214316;28;20618;-60
2021/12/15 06:07:31;;;;;;;27.63;18.13;;;5.70;99.90;;;6.40;100.00;99345.06;5207886;28;20685;-58
2021/12/15 06:10:05;;;;;;;25.93;18.30;;;5.70;99.90;;;6.42;100.00;99346.13;5222060;28;20217;-59
2021/12/15 06:12:39;;;;;;;27.97;18.43;;;5.70;99.90;;;6.43;100.00;99353.88;5220558;28;20201;-59
2021/12/15 06:15:14;;;;;;;27.50;18.27;;;5.70;99.90;;;6.44;100.00;99354.75;5215844;28;20653;-60
2021/12/15 06:17:49;;;;;;;27.73;19.00;;;5.70;99.90;;;6.44;100.00;99349.69;5215618;28;20216;-61
2021/12/15 06:20:22;;;;;;;24.67;18.13;;;5.70;99.90;;;6.41;100.00;99357.00;5218238;28;20736;-58
2021/12/15 06:22:55;;;;;;;25.00;17.03;;;5.60;99.90;;;6.37;100.00;99357.47;5218434;28;20201;-58
2021/12/15 06:25:29;;;;;;;25.83;17.33;;;5.60;99.90;;;6.35;100.00;99358.94;5217406;28;20208;-57
2021/12/15 06:28:02;;;;;;;22.53;17.10;;;5.60;99.90;;;6.37;100.00;99365.09;5217235;28;20207;-56
2021/12/15 06:30:37;;;;;;;22.27;17.23;;;5.60;99.90;;;6.31;100.00;99358.66;5218031;28;20209;-59
2021/12/15 06:33:12;;;;;;;19.50;14.30;;;5.60;99.90;;;6.36;100.00;99368.38;5217744;28;20203;-60
2021/12/15 06:35:53;;;;;;;21.87;14.53;;;5.60;99.90;;;6.35;100.00;99367.47;5218882;28;20197;-59
2021/12/15 06:38:30;;;;;;;19.80;15.30;;;5.60;99.90;;;6.40;100.00;99370.47;5219387;28;20588;-58
2021/12/15 06:41:06;;;;;;;18.20;14.77;;;5.70;99.90;;;6.36;100.00;99370.91;5222548;28;20551;-58
2021/12/15 06:43:45;;;;;;;20.33;14.90;;;5.60;99.90;;;6.39;100.00;99377.19;5218804;28;20205;-58
2021/12/15 06:46:53;;;;;;;19.30;14.27;;;5.60;99.90;;;6.40;100.00;99378.97;5216854;28;20197;-59
2021/12/15 06:58:15;;;;;;;15.20;12.53;;;5.60;99.90;;;6.40;100.00;99380.63;5216417;28;20204;-58
2021/12/15 07:00:51;;;;;;;15.17;12.67;;;5.60;99.90;;;6.40;100.00;99388.25;5217088;28;20706;-59
2021/12/15 07:03:25;;;;;;;14.43;12.17;;;5.60;99.90;;;6.41;100.00;99383.31;5214883;28;20296;-58
2021/12/15 07:06:00;;;;;;;14.53;11.50;;;5.60;99.90;;;6.43;100.00;99386.00;5210392;28;20197;-59
2021/12/15 07:08:35;;;;;;;13.83;12.10;;;5.60;99.90;;;6.43;100.00;99389.41;5214840;28;20204;-57
2021/12/15 07:11:09;;;;;;;15.13;13.03;;;5.60;99.90;;;6.42;100.00;99391.84;5218535;28;20197;-59
2021/12/15 07:13:42;;;;;;;15.33;12.77;;;5.60;99.90;;;6.41;100.00;99392.56;5217857;28;20671;-58
2021/12/15 07:16:18;;;;;;;14.70;13.13;;;5.70;99.90;;;6.38;100.00;99397.34;5221136;28;20201;-58
2021/12/15 07:19:03;;;;;;;17.27;14.30;;;5.60;99.90;;;6.36;100.00;99402.28;5219274;28;20262;-59
2021/12/15 07:21:41;;;;;;;21.27;17.10;;;5.60;99.90;;;6.32;100.00;99406.19;5222275;28;20213;-61
2021/12/15 07:24:14;;;;;;;17.93;14.53;;;5.60;99.90;;;6.31;100.00;99404.34;5215954;28;20209;-57
2021/12/15 07:26:47;;;;;;;20.83;15.57;;;5.60;99.90;;;6.39;100.00;99409.31;5216766;28;20205;-54
2021/12/15 07:29:20;;;;;;;20.10;15.23;;;5.70;99.90;;;6.34;100.00;99413.03;5202234;28;20222;-60
2021/12/15 07:31:53;;;;;;;18.30;14.17;;;5.60;99.90;;;6.35;100.00;99418.25;5208420;28;20193;-58
2021/12/15 07:34:26;;;;;;;19.87;15.27;;;5.60;99.90;;;6.36;100.00;99421.72;5222140;28;20193;-60
2021/12/15 07:37:00;;;;;;;18.77;14.83;;;5.60;99.90;;;6.34;100.00;99430.81;5222672;28;20651;-56
2021/12/15 07:39:36;;;;;;;19.13;14.67;;;5.60;99.90;;;6.31;100.00;99434.81;5222688;28;20721;-57
2021/12/15 07:42:12;;;;;;;16.63;13.87;;;5.60;99.90;;;6.37;100.00;99439.63;5213331;28;20202;-58
2021/12/15 07:44:45;;;;;;;18.00;15.37;;;5.60;99.90;;;6.42;100.00;99443.50;5207195;28;20219;-58
2021/12/15 07:47:18;;;;;;;19.17;15.23;;;5.70;99.90;;;6.42;100.00;99447.69;5219092;28;20223;-56
2021/12/15 07:49:51;;;;;;;19.03;15.17;;;5.70;99.90;;;6.42;100.00;99445.16;5212709;28;20386;-60
2021/12/15 07:52:27;;;;;;;18.10;14.57;;;5.70;99.90;;;6.44;100.00;99446.19;5182974;28;1042319;-55
2021/12/15 07:55:00;;;;;;;16.10;13.70;;;5.70;99.90;;;6.47;100.00;99449.94;5215470;28;20193;-57
2021/12/15 07:57:33;;;;;;;16.43;14.73;;;5.70;99.90;;;6.46;100.00;99449.78;5209806;28;20201;-60
2021/12/15 08:00:09;;;;;;;16.50;13.97;;;5.70;99.90;;;6.44;100.00;99456.34;5218640;28;20214;-57
2021/12/15 08:02:42;;;;;;;17.03;15.23;;;5.70;99.90;;;6.45;100.00;99453.09;5219482;28;20198;-57
2021/12/15 08:05:16;;;;;;;18.57;14.53;;;5.70;99.90;;;6.46;100.00;99454.88;5218800;28;20288;-60
2021/12/15 08:07:50;;;;;;;15.77;13.63;;;5.70;99.90;;;6.47;100.00;99449.94;5224484;28;20695;-60
2021/12/15 08:10:23;;;;;;;15.80;13.07;;;5.70;99.90;;;6.50;100.00;99456.97;5215299;28;20236;-55
2021/12/15 08:12:57;;;;;;;14.53;12.53;;;5.70;99.90;;;6.50;100.00;99442.63;5219445;28;20887;-58
2021/12/15 08:15:30;;;;;;;16.77;13.13;;;5.70;99.90;;;6.47;100.00;99446.53;5220012;28;20205;-59
2021/12/15 08:18:03;;;;;;;14.67;12.70;;;5.70;99.90;;;6.44;100.00;99451.25;5216773;28;20209;-59
2021/12/15 08:20:38;;;;;;;15.73;12.60;;;5.70;99.90;;;6.39;100.00;99452.47;5221631;28;20605;-59
2021/12/15 08:23:14;;;;;;;15.33;12.60;;;5.60;99.90;;;6.41;100.00;99451.88;5223188;28;20688;-59
2021/12/15 08:25:47;;;;;;;16.43;12.90;;;5.70;99.90;;;6.43;100.00;99452.91;5216159;28;20388;-58
2021/12/15 08:28:20;;;;;;;16.57;13.53;;;5.70;99.90;;;6.46;100.00;99458.28;5220464;28;20200;-57
2021/12/15 08:30:54;;;;;;;17.90;14.17;;;5.60;99.90;;;6.44;100.00;99456.34;5217627;28;20680;-58
2021/12/15 08:33:28;;;;;;;15.93;13.77;;;5.70;99.90;;;6.49;100.00;99455.16;5217870;28;20201;-60
2021/12/15 08:36:06;;;;;;;15.47;13.47;;;5.70;99.90;;;6.50;100.00;99451.91;5217533;28;20276;-60
2021/12/15 08:38:44;;;;;;;15.43;13.57;;;5.80;99.90;;;6.57;100.00;99454.28;5217196;28;20677;-58
2021/12/15 08:41:23;;;;;;;16.27;14.53;;;5.80;99.90;;;6.58;100.00;99450.09;5220508;28;20604;-57
2021/12/15 08:43:57;;;;;;;15.23;13.57;;;5.90;99.90;;;6.59;100.00;99460.41;5218921;28;20487;-58
2021/12/15 08:46:37;;;;;;;17.37;15.23;;;5.80;99.90;;;6.63;100.00;99459.97;5221875;28;20207;-58
2021/12/15 08:49:19;;;;;;;14.40;12.90;;;5.90;99.90;;;6.66;100.00;99462.78;5215339;28;20720;-57
2021/12/15 08:51:53;;;;;;;15.30;13.67;;;5.90;99.90;;;6.73;100.00;99460.13;5210386;28;20203;-59
2021/12/15 08:54:28;;;;;;;14.87;13.33;;;6.00;99.90;;;6.74;100.00;99471.19;5225207;28;20556;-57
2021/12/15 08:57:01;;;;;;;15.30;13.77;;;6.00;99.90;;;6.74;100.00;99469.53;5223528;28;20585;-60
2021/12/15 08:59:34;;;;;;;15.03;13.43;;;6.00;99.90;;;6.77;100.00;99476.56;5212379;28;20234;-58
2021/12/15 09:02:08;;;;;;;14.53;13.03;;;6.00;99.90;;;6.81;100.00;99471.03;5215998;28;20232;-56
2021/12/15 09:04:41;;;;;;;13.87;12.47;;;6.00;99.90;;;6.83;100.00;99474.59;5219031;28;20297;-58
2021/12/15 09:07:14;;;;;;;14.83;13.43;;;6.10;99.90;;;6.83;99.97;99473.72;5218267;28;20198;-60
2021/12/15 09:09:49;;;;;;;13.73;12.23;;;6.10;99.90;;;6.86;99.93;99474.00;5218703;28;20229;-60
2021/12/15 09:12:22;;;;;;;14.67;12.97;;;6.10;99.90;;;6.86;99.70;99474.91;5214639;28;20658;-60
2021/12/15 09:14:55;;;;;;;13.53;12.23;;;6.10;99.90;;;6.85;98.82;99477.31;5212110;28;20205;-59
2021/12/15 09:17:28;;;;;;;15.57;14.07;;;6.10;99.90;;;6.87;98.25;99470.75;5222744;28;20921;-55
2021/12/15 09:20:01;;;;;;;13.03;11.73;;;6.10;99.90;;;6.88;98.53;99472.53;5222321;28;20219;-57
2021/12/15 09:22:35;;;;;;;14.57;13.10;;;6.10;99.90;;;6.89;98.26;99474.31;5220859;28;20221;-59
2021/12/15 09:25:12;;;;;;;15.60;13.97;;;6.10;99.90;;;6.88;98.08;99472.53;5219809;28;20220;-59
2021/12/15 09:27:48;;;;;;;12.80;11.50;;;6.10;99.90;;;6.90;97.67;99481.22;5218405;28;20292;-57
2021/12/15 09:30:22;;;;;;;15.30;13.60;;;6.10;99.90;;;6.88;97.47;99480.16;5221474;28;20727;-58
2021/12/15 09:32:56;;;;;;;15.20;13.60;;;6.10;99.90;;;6.89;97.45;99481.94;5223601;28;20572;-58
2021/12/15 09:35:31;;;;;;;14.77;13.27;;;6.10;99.90;;;6.89;96.92;99479.41;5219247;28;20208;-56
2021/12/15 09:38:04;;;;;;;14.10;12.70;;;6.10;99.90;;;6.94;97.27;99478.19;5219536;28;20206;-64
2021/12/15 09:40:40;;;;;;;15.47;13.90;;;6.10;99.90;;;6.94;96.70;99483.28;5212267;28;20239;-57
2021/12/15 09:43:14;;;;;;;14.83;13.33;;;6.20;99.90;;;6.92;97.31;99484.78;5220724;28;20688;-58
2021/12/15 09:45:52;;;;;;;14.90;13.27;;;6.20;99.90;;;6.98;97.62;99486.28;5219887;28;20209;-56
2021/12/15 10:05:46;;;;;;;12.83;11.53;;;6.40;99.90;;;7.15;95.32;99485.38;5204112;28;20201;-62
2021/12/15 10:11:46;;;;;;;13.87;12.37;;;6.40;99.90;;;7.26;95.04;99478.75;5183272;28;20202;-59
2021/12/15 10:17:40;;;;;;;13.50;12.07;;;6.50;99.90;;;7.30;93.96;99472.34;5221428;28;20593;-62
2021/12/15 10:20:20;;;;;;;13.57;12.17;;;6.50;99.90;;;7.30;94.17;99469.81;5214980;28;20701;-61
2021/12/15 10:22:59;;;;;;;13.23;12.00;;;6.50;99.90;;;7.25;94.12;99474.44;5216167;28;20217;-61
2021/12/15 10:25:38;;;;;;;12.03;10.83;;;6.50;99.90;;;7.28;93.53;99463.66;5218840;28;20295;-61
2021/12/15 10:28:15;;;;;;;11.63;10.60;;;6.50;99.90;;;7.23;92.85;99464.09;5210797;28;21000;-62
2021/12/15 10:30:53;;;;;;;11.30;10.10;;;6.50;99.90;;;7.24;92.38;99467.56;5213553;28;20203;-62
2021/12/15 10:33:31;;;;;;;12.03;10.83;;;6.50;99.90;;;7.34;90.89;99467.69;5214231;28;20189;-61
2021/12/15 10:36:09;;;;;;;9.07;8.27;;;6.50;99.90;;;7.42;89.12;99473.50;5210245;28;20202;-62
2021/12/15 10:38:45;;;;;;;7.70;7.10;;;6.60;99.90;;;7.35;88.95;99468.56;5216100;28;20236;-61
2021/12/15 10:41:24;;;;;;;8.30;7.70;;;6.50;99.90;;;7.37;88.20;99467.06;5217427;28;20197;-62
2021/12/15 10:44:01;;;;;;;7.97;7.37;;;6.60;99.90;;;7.30;88.40;99463.06;5211272;28;20398;-61
2021/12/15 10:46:39;;;;;;;7.93;7.33;;;6.50;99.90;;;7.25;87.75;99468.47;5218805;28;20201;-61
2021/12/15 10:49:21;;;;;;;8.40;7.77;;;6.50;99.90;;;7.41;88.35;99462.44;5214193;28;20221;-62
2021/12/15 10:51:59;;;;;;;7.70;7.00;;;6.50;99.90;;;7.27;87.60;99461.84;5214887;28;20209;-61
2021/12/15 10:54:36;;;;;;;7.20;6.60;;;6.50;99.90;;;7.31;85.96;99463.94;5220796;28;20193;-60
2021/12/15 10:57:12;;;;;;;7.60;7.00;;;6.50;99.90;;;7.19;87.98;99467.13;5217640;28;20207;-59
2021/12/15 10:59:49;;;;;;;7.53;7.00;;;6.40;99.90;;;7.17;88.75;99471.16;5212760;28;20231;-61
2021/12/15 11:02:43;;;;;;;7.40;6.90;;;6.40;99.90;;;7.31;88.25;99463.94;5220881;28;20595;-62
2021/12/15 11:05:21;;;;;;;7.10;6.60;;;6.40;99.90;;;7.21;87.51;99473.25;5223641;28;20208;-61
2021/12/15 11:07:58;;;;;;;6.83;6.33;;;6.40;99.90;;;7.26;87.80;99467.69;5219468;28;20540;-62
2021/12/15 11:10:35;;;;;;;7.10;6.53;;;6.40;99.90;;;7.25;88.32;99465.91;5223193;28;20227;-61
2021/12/15 11:13:11;;;;;;;6.87;6.37;;;6.40;99.90;;;7.38;85.51;99459.59;5217773;28;20578;-62
2021/12/15 11:15:48;;;;;;;7.90;7.40;;;6.50;99.90;;;7.40;85.44;99459.75;5221391;28;20232;-61
2021/12/15 11:18:25;;;;;;;8.57;7.97;;;6.60;99.90;;;7.29;87.11;99458.72;5214898;28;20572;-62
2021/12/15 11:21:01;;;;;;;6.27;5.87;;;6.50;99.90;;;7.35;84.29;99458.41;5215759;28;20205;-61
2021/12/15 11:23:35;;;;;;;6.37;6.03;;;6.60;99.90;;;7.37;84.66;99447.63;5217831;28;20227;-60
2021/12/15 11:26:11;;;;;;;5.23;4.93;;;6.70;99.90;;;7.41;82.71;99451.34;5215730;28;20189;-60
2021/12/15 11:28:47;;;;;;;6.80;6.30;;;6.70;99.90;;;7.24;85.12;99449.78;5212524;28;20697;-61
2021/12/15 11:31:27;;;;;;;6.40;6.00;;;6.50;99.90;;;7.11;84.72;99447.69;5226677;28;20645;-61
2021/12/15 11:34:05;;;;;;;6.93;6.43;;;6.50;99.90;;;7.17;84.75;99448.25;5218013;28;20205;-60
2021/12/15 11:36:44;;;;;;;6.80;6.30;;;6.50;99.90;;;7.06;86.20;99451.41;5225666;28;20200;-61
2021/12/15 11:39:20;;;;;;;7.27;6.67;;;6.40;99.90;;;6.99;86.92;99446.50;5226631;28;20766;-61
2021/12/15 11:41:55;;;;;;;7.67;7.13;;;6.30;99.90;;;6.99;87.47;99443.97;5212515;28;20862;-62
2021/12/15 11:44:30;;;;;;;6.73;6.33;;;6.20;99.90;;;7.06;85.61;99441.25;5224878;28;20215;-61